Capitol Logistics 453


KPDX
Portland International Airport
Portland, Oregon, US
KRIV
March Air Reserve Base
Riverside, California, US

Activity Log

Date Flight Route Aircraft Duration
02/01/2020 CPX453 CASCD2 JOGEN Q7 AVE J6 PMD MARCH4 B738 2h 10m
01/05/2020 CPX453 N0452F410 CASCD2 DSD FRA LANDO J6 PMD MARCH4 B738 2h 18m
09/13/2019 CPX453 CASCD2 PAWLI Q11 PUSHH PMD MARCH4 B738 2h 12m
08/31/2019 CPX453 CASCD2 JOGEN Q7 AVE J6 PMD MARCH4 B738 2h 10m

Route Details

Aircraft Information
Primary: Boeing 737-800BCF
Backup: Not Available
Route Data
Distance: 743nm
Sched. Duration: 2h 14m
Avg. Duration: 2h 12m (-2m)
Times Flown: 4
Recm'd Route: CASCD2 JOGEN Q7 AVE J6 PMD MARCH4
Planned Altitude: 39,000ft
Origin Wx: KPDX 231353Z 17009KT 10SM SCT022 BKN046 OVC055 09/05 A3003 RMK AO2 RAE14 SLP167 P0000 T00890050
Dest. Wx: KRIV 231358Z AUTO 00000KT 10SM OVC009 10/08 A3021 RMK AO2 RAE03DZB03E10 CIG 008 RWY14 SLP230 P0000 T00980081
Notes:

Financial History
Total Freight: 56,496lbs
Average Load: 14,124lbs/flt
Fuel Used: 38,481lbs
Avg. Fuel Used: 9,620lbs/flt
Fuel Expense: $33,478
Avg. Fuel Expense: $8,370
Avg. Fuel Cost: $0.87/lbs
Total Gross Income: $74,633
Pilot Pay: $786
Total Expenses: $8,268
Total Revenue: $31,155
Average Revenue: $18,658.20